createdAt,value
2023-02-28T00:02:28.217Z,9.95
2023-02-28T00:05:21.158Z,9.97
2023-02-28T00:08:11.086Z,9.99
2023-02-28T00:11:05.462Z,9.95
2023-02-28T00:13:54.878Z,9.97
2023-02-28T00:16:44.048Z,9.95
2023-02-28T00:19:33.245Z,10.01
2023-02-28T00:22:24.312Z,9.98
2023-02-28T00:25:16.452Z,10.02
2023-02-28T00:28:07.225Z,10.06
2023-02-28T00:30:56.458Z,10.07
2023-02-28T00:33:45.893Z,10.06
2023-02-28T00:36:37.469Z,10.03
2023-02-28T00:39:27.407Z,10.07
2023-02-28T00:42:18.874Z,10.07
2023-02-28T00:45:12.699Z,10.12
2023-02-28T00:48:01.973Z,10.13
2023-02-28T00:50:51.818Z,10.14
2023-02-28T00:53:41.076Z,10.15
2023-02-28T00:56:30.340Z,10.12
2023-02-28T00:59:20.586Z,10.12
2023-02-28T01:02:11.246Z,10.11
2023-02-28T01:05:00.491Z,10.16
2023-02-28T01:07:52.680Z,10.18
2023-02-28T01:10:42.377Z,10.15
2023-02-28T01:13:31.625Z,10.12
2023-02-28T01:16:20.928Z,10.13
2023-02-28T01:19:11.548Z,10.12
2023-02-28T01:22:04.144Z,10.18
2023-02-28T01:24:53.616Z,10.19
2023-02-28T01:27:43.160Z,10.20
2023-02-28T01:30:32.924Z,10.19
2023-02-28T01:33:22.163Z,10.20
2023-02-28T01:36:16.186Z,10.16
2023-02-28T01:39:06.119Z,10.13
2023-02-28T01:41:55.349Z,10.15
2023-02-28T01:45:24.294Z,10.17
2023-02-28T01:48:13.750Z,10.14
2023-02-28T01:51:09.688Z,10.13
2023-02-28T01:54:04.674Z,10.10
2023-02-28T01:57:01.421Z,10.14
2023-02-28T01:59:56.862Z,10.09
2023-02-28T02:02:49.651Z,10.12
2023-02-28T02:05:41.812Z,10.11
2023-02-28T02:08:32.004Z,10.13
2023-02-28T02:11:25.055Z,10.11
2023-02-28T02:14:50.517Z,10.13
2023-02-28T02:17:46.823Z,9.99
2023-02-28T02:21:27.195Z,10.13
2023-02-28T02:24:56.789Z,10.09
2023-02-28T02:28:25.044Z,10.09
2023-02-28T02:31:44.016Z,10.13
2023-02-28T02:34:51.754Z,10.05
2023-02-28T02:37:50.737Z,10.08
2023-02-28T02:40:48.597Z,10.12
2023-02-28T02:43:42.970Z,10.11
2023-02-28T02:46:37.107Z,10.07
2023-02-28T02:49:33.492Z,10.07
2023-02-28T02:52:35.095Z,9.99
2023-02-28T02:55:26.461Z,10.08
2023-02-28T02:58:20.998Z,10.04
2023-02-28T03:01:13.155Z,10.02
2023-02-28T03:04:07.289Z,10.00
2023-02-28T03:06:57.056Z,10.05
2023-02-28T03:09:54.852Z,10.00
2023-02-28T03:12:54.909Z,10.07
2023-02-28T03:16:03.475Z,10.05
2023-02-28T03:19:05.124Z,9.99
2023-02-28T03:22:16.603Z,10.03
2023-02-28T03:25:14.655Z,9.92
2023-02-28T03:28:11.172Z,10.00
2023-02-28T03:31:10.234Z,9.98
2023-02-28T03:34:06.381Z,9.94
2023-02-28T03:36:59.868Z,9.94
2023-02-28T03:39:56.313Z,9.94
2023-02-28T03:42:54.009Z,9.99
2023-02-28T03:45:45.945Z,9.96
2023-02-28T03:48:42.893Z,10.01
2023-02-28T03:51:34.296Z,10.02
2023-02-28T03:54:30.731Z,10.03
2023-02-28T03:57:29.218Z,10.00
2023-02-28T04:00:29.268Z,10.03
2023-02-28T04:03:18.605Z,10.01
2023-02-28T04:06:15.199Z,10.03
2023-02-28T04:09:07.474Z,10.03
2023-02-28T04:11:57.955Z,10.03
2023-02-28T04:14:47.132Z,10.04
2023-02-28T04:17:37.794Z,10.04
2023-02-28T04:20:27.014Z,10.06
2023-02-28T04:23:16.292Z,10.06
2023-02-28T04:26:06.995Z,10.06
2023-02-28T04:28:56.326Z,10.02
2023-02-28T04:31:45.834Z,10.04
2023-02-28T04:34:36.519Z,9.96
2023-02-28T04:37:29.788Z,10.00
2023-02-28T04:40:19.446Z,10.03
2023-02-28T04:43:08.637Z,10.02
2023-02-28T04:45:58.959Z,9.97
2023-02-28T04:48:48.247Z,10.02
2023-02-28T04:51:39.333Z,9.98
2023-02-28T04:54:29.440Z,9.97
2023-02-28T04:57:18.678Z,9.94
2023-02-28T05:00:12.577Z,9.93
2023-02-28T05:03:01.746Z,9.91
2023-02-28T05:05:50.930Z,9.88
2023-02-28T05:08:41.618Z,9.75
2023-02-28T05:11:36.194Z,9.70
2023-02-28T05:14:25.513Z,9.69
2023-02-28T05:17:14.754Z,9.67
2023-02-28T05:20:14.996Z,9.61
2023-02-28T05:23:04.589Z,9.48
2023-02-28T05:25:55.225Z,9.36
2023-02-28T05:28:44.694Z,9.25
2023-02-28T05:31:34.595Z,9.23
2023-02-28T05:34:23.784Z,9.18
2023-02-28T05:37:15.411Z,9.10
2023-02-28T05:40:07.091Z,9.04
2023-02-28T05:42:57.701Z,8.85
2023-02-28T05:45:46.938Z,8.84
2023-02-28T05:48:36.882Z,8.75
2023-02-28T05:51:26.174Z,8.75
2023-02-28T05:54:15.595Z,8.71
2023-02-28T05:57:10.066Z,8.75
2023-02-28T06:00:04.414Z,8.75
2023-02-28T06:03:03.204Z,8.79
2023-02-28T06:05:52.575Z,8.81
2023-02-28T06:08:41.822Z,8.82
2023-02-28T06:11:31.322Z,8.82
2023-02-28T06:14:22.637Z,8.86
2023-02-28T06:17:19.482Z,8.88
2023-02-28T06:20:11.836Z,8.88
2023-02-28T06:23:01.626Z,8.79
2023-02-28T06:25:51.110Z,8.92
2023-02-28T06:28:40.594Z,8.85
2023-02-28T06:31:30.477Z,8.91
2023-02-28T06:34:21.727Z,8.87
2023-02-28T06:37:13.977Z,8.87
2023-02-28T06:40:07.007Z,8.85
2023-02-28T06:42:56.371Z,8.95
2023-02-28T06:45:46.289Z,8.92
2023-02-28T06:48:38.287Z,8.87
2023-02-28T06:51:32.015Z,8.87
2023-02-28T06:54:21.319Z,8.84
2023-02-28T06:57:10.650Z,8.75
2023-02-28T07:00:01.328Z,8.72
2023-02-28T07:02:50.773Z,8.72
2023-02-28T07:05:42.058Z,8.69
2023-02-28T07:08:36.878Z,8.59
2023-02-28T07:11:29.270Z,8.56
2023-02-28T07:14:18.662Z,8.52
2023-02-28T07:17:10.129Z,8.46
2023-02-28T07:19:59.616Z,8.51
2023-02-28T07:22:56.306Z,8.50
2023-02-28T07:25:47.952Z,8.53
2023-02-28T07:28:37.193Z,8.47
2023-02-28T07:31:26.431Z,8.51
2023-02-28T07:34:15.858Z,8.52
2023-02-28T07:37:06.558Z,8.52
2023-02-28T07:39:55.705Z,8.53
2023-02-28T07:42:46.506Z,8.50
2023-02-28T07:45:39.811Z,8.47
2023-02-28T07:48:28.978Z,8.46
2023-02-28T07:51:18.522Z,8.36
2023-02-28T07:54:08.815Z,8.39
2023-02-28T07:56:58.046Z,8.34
2023-02-28T07:59:48.763Z,8.38
2023-02-28T08:02:38.816Z,8.37
2023-02-28T08:05:28.016Z,8.39
2023-02-28T08:08:18.225Z,8.40
2023-02-28T08:11:07.675Z,8.45
2023-02-28T08:13:57.593Z,8.46
2023-02-28T08:16:48.256Z,8.52
2023-02-28T08:19:37.426Z,8.53
2023-02-28T08:22:26.705Z,8.54
2023-02-28T08:25:16.156Z,8.58
2023-02-28T08:28:06.450Z,8.57
2023-02-28T08:30:56.029Z,8.57
2023-02-28T08:33:49.711Z,8.62
2023-02-28T08:36:39.558Z,8.64
2023-02-28T08:39:28.945Z,8.63
2023-02-28T08:42:18.190Z,8.77
2023-02-28T08:45:08.991Z,8.79
2023-02-28T08:47:58.398Z,8.70
2023-02-28T08:51:06.664Z,8.82
2023-02-28T08:54:00.905Z,8.89
2023-02-28T08:56:50.183Z,8.94
2023-02-28T08:59:39.514Z,9.00
2023-02-28T09:02:28.831Z,9.06
2023-02-28T09:05:18.437Z,9.04
2023-02-28T09:08:09.334Z,9.06
2023-02-28T09:11:00.645Z,9.07
2023-02-28T09:13:50.817Z,9.11
2023-02-28T09:16:40.108Z,9.14
2023-02-28T09:19:29.484Z,9.20
2023-02-28T09:22:19.101Z,9.15
2023-02-28T09:25:10.268Z,9.18
2023-02-28T09:27:59.644Z,9.12
2023-02-28T09:30:51.736Z,9.21
2023-02-28T09:33:41.026Z,9.25
2023-02-28T09:36:41.903Z,9.20
2023-02-28T09:39:32.968Z,9.34
2023-02-28T09:42:30.563Z,9.42
2023-02-28T09:45:26.856Z,9.42
2023-02-28T09:48:23.218Z,9.59
2023-02-28T09:51:24.173Z,9.63
2023-02-28T09:54:19.944Z,9.65
2023-02-28T09:57:16.713Z,9.71
2023-02-28T10:00:19.081Z,9.77
2023-02-28T10:03:27.935Z,9.92
2023-02-28T10:06:20.666Z,10.10
2023-02-28T10:09:15.589Z,10.24
2023-02-28T10:12:10.723Z,10.21
2023-02-28T10:15:03.466Z,10.15
2023-02-28T10:18:08.777Z,10.16
2023-02-28T10:20:59.216Z,10.33
2023-02-28T10:23:50.569Z,10.41
2023-02-28T10:26:39.858Z,10.53
2023-02-28T10:29:30.933Z,10.60
2023-02-28T10:32:23.578Z,10.58
2023-02-28T10:35:20.177Z,10.57
2023-02-28T10:38:19.770Z,10.67
2023-02-28T10:41:11.951Z,10.81
2023-02-28T10:44:21.929Z,10.67
2023-02-28T10:47:18.914Z,10.53
2023-02-28T10:50:28.319Z,10.55
2023-02-28T10:53:44.854Z,10.56
2023-02-28T10:56:44.890Z,10.54
2023-02-28T10:59:34.201Z,10.93
2023-02-28T11:02:36.970Z,11.28
2023-02-28T11:05:30.450Z,11.43
2023-02-28T11:08:20.596Z,11.59
2023-02-28T11:11:11.317Z,11.67
2023-02-28T11:14:07.488Z,11.64
2023-02-28T11:16:59.625Z,11.77
2023-02-28T11:19:53.416Z,11.96
2023-02-28T11:22:48.737Z,12.17
2023-02-28T11:25:40.319Z,12.18
2023-02-28T11:28:34.215Z,12.19
2023-02-28T11:31:23.964Z,12.07
2023-02-28T11:34:28.607Z,11.92
2023-02-28T11:37:21.044Z,11.88
2023-02-28T11:40:16.498Z,11.88
2023-02-28T11:43:22.634Z,11.76
2023-02-28T11:46:28.538Z,11.80
2023-02-28T11:49:33.152Z,11.60
2023-02-28T11:52:34.106Z,11.44
2023-02-28T11:55:29.716Z,11.26
2023-02-28T11:58:40.768Z,11.08
2023-02-28T12:02:14.443Z,10.82
2023-02-28T12:05:29.919Z,10.62
2023-02-28T12:08:39.254Z,10.58
2023-02-28T12:11:53.994Z,10.65
2023-02-28T12:15:30.615Z,10.85
2023-02-28T12:18:39.766Z,10.99
2023-02-28T12:21:44.576Z,11.48
2023-02-28T12:25:11.552Z,11.62
2023-02-28T12:28:01.960Z,11.70
2023-02-28T12:31:00.475Z,11.81
2023-02-28T12:33:55.983Z,11.82
2023-02-28T12:36:48.038Z,11.89
2023-02-28T12:39:50.227Z,11.69
2023-02-28T12:42:48.358Z,11.67
2023-02-28T12:45:46.057Z,11.54
2023-02-28T12:48:49.054Z,11.32
2023-02-28T12:51:40.580Z,11.15
2023-02-28T12:54:38.406Z,11.02
2023-02-28T12:57:37.873Z,10.95
2023-02-28T13:00:34.002Z,10.93
2023-02-28T13:04:00.277Z,11.00
2023-02-28T13:07:13.073Z,11.12
2023-02-28T13:10:07.484Z,11.26
2023-02-28T13:12:57.652Z,11.19
2023-02-28T13:16:03.844Z,11.08
2023-02-28T13:18:53.783Z,11.01
2023-02-28T13:21:48.009Z,10.82
2023-02-28T13:24:53.588Z,10.74
2023-02-28T13:27:43.844Z,10.68
2023-02-28T13:31:07.954Z,10.67
2023-02-28T13:34:18.277Z,10.60
2023-02-28T13:37:37.524Z,10.53
2023-02-28T13:40:38.378Z,10.57
2023-02-28T13:44:06.521Z,10.50
2023-02-28T13:47:38.041Z,10.39
2023-02-28T13:50:38.760Z,10.18
2023-02-28T13:53:58.355Z,10.29
2023-02-28T13:57:00.291Z,10.29
2023-02-28T14:00:06.718Z,10.19
2023-02-28T14:03:33.158Z,10.16
2023-02-28T14:06:29.754Z,10.19
2023-02-28T14:09:27.072Z,10.17
2023-02-28T14:12:59.960Z,10.22
2023-02-28T14:16:01.698Z,10.30
2023-02-28T14:18:57.424Z,10.43
2023-02-28T14:22:03.172Z,10.47
2023-02-28T14:25:20.523Z,10.48
2023-02-28T14:28:22.052Z,10.35
2023-02-28T14:31:17.395Z,10.40
2023-02-28T14:34:34.110Z,10.49
2023-02-28T14:37:31.214Z,10.47
2023-02-28T14:40:28.541Z,10.36
2023-02-28T14:43:24.550Z,10.35
2023-02-28T14:46:16.386Z,10.30
2023-02-28T14:49:08.299Z,10.24
2023-02-28T14:52:15.232Z,10.32
2023-02-28T14:55:14.455Z,10.30
2023-02-28T14:58:23.369Z,10.36
2023-02-28T15:01:14.694Z,10.29
2023-02-28T15:04:07.021Z,10.31
2023-02-28T15:07:13.554Z,10.28
2023-02-28T15:10:19.889Z,10.29
2023-02-28T15:13:13.469Z,10.31
2023-02-28T15:16:06.923Z,10.16
2023-02-28T15:19:01.527Z,10.17
2023-02-28T15:21:54.909Z,10.05
2023-02-28T15:24:47.001Z,10.09
2023-02-28T15:27:47.680Z,10.06
2023-02-28T15:30:37.910Z,10.03
2023-02-28T15:33:29.375Z,9.99
2023-02-28T15:36:22.062Z,10.01
2023-02-28T15:39:23.484Z,9.94
2023-02-28T15:42:13.722Z,9.43
2023-02-28T15:45:03.110Z,9.98
2023-02-28T15:47:54.727Z,9.98
2023-02-28T15:50:45.379Z,9.99
2023-02-28T15:53:40.109Z,9.92
2023-02-28T15:56:32.566Z,9.92
2023-02-28T15:59:25.570Z,9.95
2023-02-28T16:02:20.903Z,9.96
2023-02-28T16:05:29.275Z,9.91
2023-02-28T16:08:18.993Z,9.93
2023-02-28T16:11:11.306Z,9.89
2023-02-28T16:14:00.747Z,9.93
2023-02-28T16:16:53.186Z,9.90
2023-02-28T16:19:42.462Z,9.94
2023-02-28T16:22:31.639Z,9.90
2023-02-28T16:25:25.222Z,9.84
2023-02-28T16:28:23.294Z,9.88
2023-02-28T16:31:17.519Z,9.69
2023-02-28T16:34:08.189Z,9.76
2023-02-28T16:36:57.531Z,9.72
2023-02-28T16:39:50.300Z,9.56
2023-02-28T16:42:41.309Z,9.62
2023-02-28T16:45:32.061Z,9.59
2023-02-28T16:48:21.255Z,9.49
2023-02-28T16:51:14.979Z,9.56
2023-02-28T16:54:04.229Z,9.49
2023-02-28T16:56:53.472Z,9.55
2023-02-28T16:59:42.734Z,9.59
2023-02-28T17:02:33.486Z,9.49
2023-02-28T17:05:23.339Z,9.56
2023-02-28T17:08:13.156Z,9.56
2023-02-28T17:11:03.454Z,9.59
2023-02-28T17:13:54.592Z,9.58
2023-02-28T17:16:44.481Z,9.49
2023-02-28T17:19:37.125Z,9.53
2023-02-28T17:22:27.040Z,9.57
2023-02-28T17:25:16.638Z,9.52
2023-02-28T17:28:06.536Z,9.52
2023-02-28T17:30:55.807Z,9.50
2023-02-28T17:33:45.075Z,9.51
2023-02-28T17:36:37.858Z,9.46
2023-02-28T17:39:27.066Z,9.45
2023-02-28T17:42:16.322Z,9.46
2023-02-28T17:45:06.481Z,9.47
2023-02-28T17:47:55.789Z,9.50
2023-02-28T17:50:44.969Z,9.47
2023-02-28T17:53:35.659Z,9.38
2023-02-28T17:56:28.778Z,9.45
2023-02-28T17:59:18.634Z,9.41
2023-02-28T18:02:08.041Z,9.46
2023-02-28T18:04:59.131Z,9.47
2023-02-28T18:07:48.482Z,9.47
2023-02-28T18:10:39.214Z,9.48
2023-02-28T18:13:29.297Z,9.44
2023-02-28T18:16:22.116Z,9.45
2023-02-28T18:19:15.274Z,9.40
2023-02-28T18:22:04.289Z,9.41
2023-02-28T18:24:53.763Z,9.45
2023-02-28T18:27:54.283Z,9.43
2023-02-28T18:30:43.774Z,9.37
2023-02-28T18:33:33.083Z,9.30
2023-02-28T18:36:23.699Z,9.32
2023-02-28T18:39:12.894Z,9.43
2023-02-28T18:42:02.071Z,9.44
2023-02-28T18:44:52.663Z,9.40
2023-02-28T18:47:41.975Z,9.36
2023-02-28T18:50:31.203Z,9.39
2023-02-28T18:53:21.080Z,9.44
2023-02-28T18:56:13.916Z,9.36
2023-02-28T18:59:03.263Z,9.42
2023-02-28T19:01:53.991Z,9.40
2023-02-28T19:04:43.691Z,9.44
2023-02-28T19:07:33.438Z,9.43
2023-02-28T19:10:22.746Z,9.47
2023-02-28T19:13:12.065Z,9.44
2023-02-28T19:16:07.488Z,9.45
2023-02-28T19:18:59.513Z,9.46
2023-02-28T19:21:48.834Z,9.45
2023-02-28T19:24:38.047Z,9.36
2023-02-28T19:27:27.349Z,9.45
2023-02-28T19:30:18.864Z,9.43
2023-02-28T19:33:08.917Z,9.44
2023-02-28T19:36:02.524Z,9.39
2023-02-28T19:38:52.324Z,9.32
2023-02-28T19:41:42.869Z,9.26
2023-02-28T19:44:35.096Z,9.40
2023-02-28T19:47:24.999Z,9.41
2023-02-28T19:50:14.537Z,9.42
2023-02-28T19:53:08.214Z,9.30
2023-02-28T19:55:57.587Z,9.36
2023-02-28T19:58:47.100Z,9.39
2023-02-28T20:01:36.489Z,9.37
2023-02-28T20:04:28.132Z,9.32
2023-02-28T20:07:18.231Z,9.32
2023-02-28T20:10:10.513Z,9.23
2023-02-28T20:13:07.769Z,9.28
2023-02-28T20:15:59.536Z,9.27
2023-02-28T20:18:52.376Z,9.25
2023-02-28T20:21:43.992Z,9.27
2023-02-28T20:24:38.003Z,9.35
2023-02-28T20:27:28.787Z,9.33
2023-02-28T20:30:22.088Z,9.34
2023-02-28T20:33:11.375Z,9.37
2023-02-28T20:36:01.730Z,9.37
2023-02-28T20:38:51.825Z,9.33
2023-02-28T20:41:41.077Z,9.39
2023-02-28T20:44:31.656Z,9.38
2023-02-28T20:47:21.303Z,9.41
2023-02-28T20:50:12.610Z,9.39
2023-02-28T20:53:01.905Z,9.37
2023-02-28T20:55:57.867Z,9.35
2023-02-28T20:58:49.720Z,9.37
2023-02-28T21:01:40.958Z,9.35
2023-02-28T21:04:33.283Z,9.38
2023-02-28T21:07:22.645Z,9.36
2023-02-28T21:10:13.683Z,9.41
2023-02-28T21:13:04.610Z,9.41
2023-02-28T21:15:54.077Z,9.41
2023-02-28T21:18:46.092Z,9.41
2023-02-28T21:21:39.213Z,9.34
2023-02-28T21:24:28.537Z,9.39
2023-02-28T21:27:21.479Z,9.39
2023-02-28T21:30:12.682Z,9.39
2023-02-28T21:33:04.172Z,9.41
2023-02-28T21:36:03.376Z,9.33
2023-02-28T21:38:59.155Z,9.41
2023-02-28T21:41:49.359Z,9.38
2023-02-28T21:44:38.702Z,9.43
2023-02-28T21:47:29.661Z,9.39
2023-02-28T21:50:21.819Z,9.38
2023-02-28T21:53:12.507Z,9.35
2023-02-28T21:56:02.652Z,9.35
2023-02-28T21:59:00.604Z,9.34
2023-02-28T22:01:52.050Z,9.37
2023-02-28T22:04:41.440Z,9.38
2023-02-28T22:07:31.654Z,9.31
2023-02-28T22:10:26.850Z,9.26
2023-02-28T22:13:16.239Z,9.34
2023-02-28T22:16:11.899Z,9.30
2023-02-28T22:19:06.494Z,9.33
2023-02-28T22:21:55.831Z,9.29
2023-02-28T22:24:45.133Z,9.27
2023-02-28T22:27:35.952Z,9.24
2023-02-28T22:30:25.226Z,9.20
2023-02-28T22:33:14.725Z,9.14
2023-02-28T22:36:08.150Z,9.00
2023-02-28T22:39:00.961Z,9.03
2023-02-28T22:41:50.593Z,8.94
2023-02-28T22:44:41.456Z,8.90
2023-02-28T22:47:30.772Z,8.85
2023-02-28T22:50:20.362Z,8.82
2023-02-28T22:53:09.604Z,8.79
2023-02-28T22:55:58.804Z,8.81
2023-02-28T22:58:51.585Z,8.78
2023-02-28T23:01:44.744Z,8.66
2023-02-28T23:04:33.947Z,8.77
2023-02-28T23:07:24.167Z,8.79
2023-02-28T23:10:17.342Z,8.79
2023-02-28T23:13:10.825Z,8.79
2023-02-28T23:16:00.694Z,8.83
2023-02-28T23:18:51.321Z,8.79
2023-02-28T23:21:41.574Z,8.80
2023-02-28T23:24:34.008Z,8.77
2023-02-28T23:27:23.249Z,8.83
2023-02-28T23:30:14.838Z,8.80
2023-02-28T23:33:04.133Z,8.87
2023-02-28T23:35:54.749Z,8.87
2023-02-28T23:38:48.799Z,8.91
2023-02-28T23:41:37.962Z,8.86
2023-02-28T23:44:27.217Z,8.93
2023-02-28T23:47:16.898Z,8.79
2023-02-28T23:50:07.435Z,8.95
2023-02-28T23:52:58.130Z,8.92
2023-02-28T23:55:48.484Z,8.91
2023-02-28T23:58:38.314Z,8.93
